createdAt,value
2023-04-02T00:00:30.735Z,1005.99
2023-04-02T00:01:31.069Z,1006.00
2023-04-02T00:02:31.469Z,1006.05
2023-04-02T00:03:31.648Z,1006.02
2023-04-02T00:04:31.842Z,1006.09
2023-04-02T00:05:32.234Z,1006.07
2023-04-02T00:06:32.447Z,1006.10
2023-04-02T00:07:32.702Z,1006.12
2023-04-02T00:08:32.946Z,1006.16
2023-04-02T00:09:33.201Z,1006.15
2023-04-02T00:10:33.419Z,1006.22
2023-04-02T00:11:33.776Z,1006.16
2023-04-02T00:12:34.031Z,1006.25
2023-04-02T00:13:34.376Z,1006.24
2023-04-02T00:14:34.587Z,1006.23
2023-04-02T00:15:35.105Z,1006.24
2023-04-02T00:16:35.200Z,1006.32
2023-04-02T00:17:35.416Z,1006.30
2023-04-02T00:18:35.649Z,1006.24
2023-04-02T00:19:35.885Z,1006.29
2023-04-02T00:20:36.104Z,1006.35
2023-04-02T00:21:38.200Z,1006.31
2023-04-02T00:22:36.739Z,1006.33
2023-04-02T00:23:37.081Z,1006.33
2023-04-02T00:24:37.308Z,1006.35
2023-04-02T00:25:37.642Z,1006.35
2023-04-02T00:26:37.866Z,1006.35
2023-04-02T00:27:38.225Z,1006.33
2023-04-02T00:28:38.467Z,1006.42
2023-04-02T00:29:38.676Z,1006.39
2023-04-02T00:30:39.019Z,1006.43
2023-04-02T00:31:39.385Z,1006.45
2023-04-02T00:32:39.728Z,1006.45
2023-04-02T00:33:40.043Z,1006.52
2023-04-02T00:34:40.260Z,1006.45
2023-04-02T00:35:40.634Z,1006.48
2023-04-02T00:36:40.937Z,1006.49
2023-04-02T00:37:41.341Z,1006.51
2023-04-02T00:38:41.609Z,1006.50
2023-04-02T00:39:41.858Z,1006.54
2023-04-02T00:40:42.111Z,1006.55
2023-04-02T00:41:42.349Z,1006.61
2023-04-02T00:42:42.579Z,1006.58
2023-04-02T00:43:42.857Z,1006.56
2023-04-02T00:44:43.135Z,1006.60
2023-04-02T00:45:43.369Z,1006.60
2023-04-02T00:46:43.612Z,1006.68
2023-04-02T00:47:43.917Z,1006.63
2023-04-02T00:48:44.126Z,1006.67
2023-04-02T00:49:44.372Z,1006.67
2023-04-02T00:50:44.609Z,1006.65
2023-04-02T00:51:44.973Z,1006.71
2023-04-02T00:52:45.191Z,1006.74
2023-04-02T00:53:45.546Z,1006.66
2023-04-02T00:54:45.783Z,1006.76
2023-04-02T00:55:46.012Z,1006.73
2023-04-02T00:56:46.442Z,1006.72
2023-04-02T00:57:46.698Z,1006.76
2023-04-02T00:58:46.941Z,1006.66
2023-04-02T00:59:47.283Z,1006.78
2023-04-02T01:00:47.513Z,1006.77
2023-04-02T01:01:47.967Z,1006.80
2023-04-02T01:02:48.249Z,1006.77
2023-04-02T01:03:48.539Z,1006.79
2023-04-02T01:04:48.770Z,1006.77
2023-04-02T01:05:49.120Z,1006.81
2023-04-02T01:06:49.340Z,1006.81
2023-04-02T01:07:49.732Z,1006.80
2023-04-02T01:08:49.927Z,1006.79
2023-04-02T01:09:50.158Z,1006.88
2023-04-02T01:10:50.399Z,1006.88
2023-04-02T01:11:50.738Z,1006.91
2023-04-02T01:12:50.948Z,1006.95
2023-04-02T01:13:51.312Z,1006.94
2023-04-02T01:14:51.528Z,1007.01
2023-04-02T01:15:51.885Z,1006.98
2023-04-02T01:16:52.074Z,1007.01
2023-04-02T01:17:52.420Z,1007.00
2023-04-02T01:18:52.665Z,1007.03
2023-04-02T01:19:52.987Z,1007.06
2023-04-02T01:20:53.331Z,1007.10
2023-04-02T01:21:53.689Z,1007.05
2023-04-02T01:22:53.908Z,1007.10
2023-04-02T01:23:54.164Z,1007.13
2023-04-02T01:24:54.373Z,1007.15
2023-04-02T01:25:54.727Z,1007.14
2023-04-02T01:26:54.949Z,1007.14
2023-04-02T01:27:55.299Z,1007.23
2023-04-02T01:28:55.541Z,1007.21
2023-04-02T01:29:55.775Z,1007.24
2023-04-02T01:30:56.030Z,1007.19
2023-04-02T01:31:56.244Z,1007.22
2023-04-02T01:32:56.558Z,1007.25
2023-04-02T01:33:56.786Z,1007.27
2023-04-02T01:34:57.008Z,1007.29
2023-04-02T01:35:57.391Z,1007.30
2023-04-02T01:36:57.597Z,1007.28
2023-04-02T01:37:57.835Z,1007.34
2023-04-02T01:38:58.089Z,1007.35
2023-04-02T01:39:58.316Z,1007.39
2023-04-02T01:40:58.535Z,1007.36
2023-04-02T01:41:58.894Z,1007.40
2023-04-02T01:42:59.125Z,1007.41
2023-04-02T01:43:59.486Z,1007.37
2023-04-02T01:44:59.718Z,1007.46
2023-04-02T01:46:00.113Z,1007.47
2023-04-02T01:47:00.294Z,1007.49
2023-04-02T01:48:00.574Z,1007.50
2023-04-02T01:49:00.763Z,1007.49
2023-04-02T01:50:01.000Z,1007.54
2023-04-02T01:51:01.222Z,1007.52
2023-04-02T01:52:01.552Z,1007.59
2023-04-02T01:53:01.785Z,1007.58
2023-04-02T01:54:02.042Z,1007.59
2023-04-02T01:55:02.248Z,1007.58
2023-04-02T01:56:02.620Z,1007.64
2023-04-02T01:57:02.882Z,1007.63
2023-04-02T01:58:03.089Z,1007.69
2023-04-02T01:59:03.329Z,1007.70
2023-04-02T02:00:03.672Z,1007.70
2023-04-02T02:01:04.018Z,1007.74
2023-04-02T02:02:04.376Z,1007.75
2023-04-02T02:03:04.517Z,1007.77
2023-04-02T02:04:04.837Z,1007.82
2023-04-02T02:05:05.081Z,1007.83
2023-04-02T02:06:05.406Z,1007.82
2023-04-02T02:07:05.646Z,1007.86
2023-04-02T02:08:05.977Z,1007.87
2023-04-02T02:09:06.206Z,1007.88
2023-04-02T02:10:06.435Z,1007.92
2023-04-02T02:11:06.774Z,1007.96
2023-04-02T02:12:07.007Z,1007.94
2023-04-02T02:13:07.250Z,1008.04
2023-04-02T02:14:07.476Z,1007.92
2023-04-02T02:15:07.713Z,1008.02
2023-04-02T02:16:07.982Z,1008.06
2023-04-02T02:17:08.279Z,1008.08
2023-04-02T02:18:08.514Z,1008.09
2023-04-02T02:19:08.776Z,1008.11
2023-04-02T02:20:09.005Z,1008.12
2023-04-02T02:21:09.368Z,1008.13
2023-04-02T02:22:09.590Z,1008.12
2023-04-02T02:23:09.947Z,1008.18
2023-04-02T02:24:10.196Z,1008.19
2023-04-02T02:25:10.454Z,1008.19
2023-04-02T02:26:10.676Z,1008.20
2023-04-02T02:27:11.034Z,1008.21
2023-04-02T02:28:11.277Z,1008.22
2023-04-02T02:29:11.519Z,1008.28
2023-04-02T02:30:11.752Z,1008.29
2023-04-02T02:31:12.115Z,1008.33
2023-04-02T02:32:12.384Z,1008.27
2023-04-02T02:33:12.608Z,1008.30
2023-04-02T02:34:12.845Z,1008.34
2023-04-02T02:35:13.063Z,1008.28
2023-04-02T02:36:13.496Z,1008.28
2023-04-02T02:37:13.696Z,1008.33
2023-04-02T02:38:13.923Z,1008.35
2023-04-02T02:39:14.296Z,1008.40
2023-04-02T02:40:14.523Z,1008.35
2023-04-02T02:41:14.880Z,1008.40
2023-04-02T02:42:15.118Z,1008.39
2023-04-02T02:43:15.341Z,1008.37
2023-04-02T02:44:15.627Z,1008.42
2023-04-02T02:45:15.865Z,1008.48
2023-04-02T02:46:16.159Z,1008.48
2023-04-02T02:47:16.363Z,1008.53
2023-04-02T02:48:16.590Z,1008.56
2023-04-02T02:49:16.955Z,1008.56
2023-04-02T02:50:17.184Z,1008.53
2023-04-02T02:51:17.513Z,1008.61
2023-04-02T02:52:17.745Z,1008.57
2023-04-02T02:53:18.113Z,1008.56
2023-04-02T02:54:18.347Z,1008.58
2023-04-02T02:55:18.602Z,1008.61
2023-04-02T02:56:18.929Z,1008.66
2023-04-02T02:57:19.308Z,1008.67
2023-04-02T02:58:19.600Z,1008.72
2023-04-02T02:59:20.001Z,1008.66
2023-04-02T03:00:20.230Z,1008.70
2023-04-02T03:01:20.506Z,1008.70
2023-04-02T03:02:20.823Z,1008.65
2023-04-02T03:03:21.232Z,1008.78
2023-04-02T03:04:21.439Z,1008.78
2023-04-02T03:05:21.657Z,1008.80
2023-04-02T03:06:21.918Z,1008.77
2023-04-02T03:07:23.710Z,1008.82
2023-04-02T03:08:22.490Z,1008.88
2023-04-02T03:09:22.872Z,1008.92
2023-04-02T03:10:23.095Z,1008.88
2023-04-02T03:11:23.446Z,1008.97
2023-04-02T03:12:23.682Z,1008.99
2023-04-02T03:13:24.017Z,1008.98
2023-04-02T03:14:25.215Z,1008.95
2023-04-02T03:15:24.555Z,1009.01
2023-04-02T03:16:24.840Z,1009.03
2023-04-02T03:17:25.078Z,1009.03
2023-04-02T03:18:25.270Z,1009.07
2023-04-02T03:19:25.524Z,1009.00
2023-04-02T03:20:25.762Z,1009.06
2023-04-02T03:21:26.036Z,1009.08
2023-04-02T03:22:26.301Z,1009.05
2023-04-02T03:23:26.640Z,1009.09
2023-04-02T03:24:26.904Z,1009.10
2023-04-02T03:25:27.225Z,1009.20
2023-04-02T03:26:27.367Z,1009.21
2023-04-02T03:27:27.701Z,1009.20
2023-04-02T03:28:28.030Z,1009.26
2023-04-02T03:29:28.402Z,1009.25
2023-04-02T03:30:28.626Z,1009.28
2023-04-02T03:31:28.911Z,1009.32
2023-04-02T03:32:29.250Z,1009.25
2023-04-02T03:33:29.474Z,1009.36
2023-04-02T03:34:29.790Z,1009.33
2023-04-02T03:35:30.038Z,1009.39
2023-04-02T03:36:30.308Z,1009.36
2023-04-02T03:37:30.652Z,1009.40
2023-04-02T03:38:30.887Z,1009.42
2023-04-02T03:39:31.242Z,1009.49
2023-04-02T03:40:31.478Z,1009.44
2023-04-02T03:41:31.836Z,1009.44
2023-04-02T03:42:32.161Z,1009.53
2023-04-02T03:43:32.523Z,1009.47
2023-04-02T03:44:32.759Z,1009.46
2023-04-02T03:45:33.241Z,1009.48
2023-04-02T03:46:33.358Z,1009.53
2023-04-02T03:47:33.732Z,1009.52
2023-04-02T03:48:33.928Z,1009.56
2023-04-02T03:49:34.297Z,1009.53
2023-04-02T03:50:34.520Z,1009.53
2023-04-02T03:51:34.858Z,1009.54
2023-04-02T03:52:35.078Z,1009.55
2023-04-02T03:53:35.399Z,1009.60
2023-04-02T03:54:35.661Z,1009.64
2023-04-02T03:55:36.228Z,1009.64
2023-04-02T03:56:36.178Z,1009.60
2023-04-02T03:57:36.434Z,1009.70
2023-04-02T03:58:36.672Z,1009.68
2023-04-02T03:59:36.960Z,1009.70
2023-04-02T04:00:37.204Z,1009.70
2023-04-02T04:01:37.485Z,1009.72
2023-04-02T04:02:37.744Z,1009.78
2023-04-02T04:03:38.046Z,1009.77
2023-04-02T04:04:38.306Z,1009.75
2023-04-02T04:05:38.646Z,1009.83
2023-04-02T04:06:38.892Z,1009.81
2023-04-02T04:07:39.118Z,1009.80
2023-04-02T04:08:39.370Z,1009.87
2023-04-02T04:09:39.634Z,1009.92
2023-04-02T04:10:39.889Z,1009.92
2023-04-02T04:11:40.123Z,1009.98
2023-04-02T04:12:40.361Z,1009.99
2023-04-02T04:13:40.612Z,1009.96
2023-04-02T04:14:41.894Z,1010.10
2023-04-02T04:15:41.161Z,1010.06
2023-04-02T04:16:41.467Z,1010.07
2023-04-02T04:17:41.767Z,1010.16
2023-04-02T04:18:42.022Z,1010.06
2023-04-02T04:19:42.276Z,1010.16
2023-04-02T04:20:42.529Z,1010.13
2023-04-02T04:21:49.924Z,1010.16
2023-04-02T04:22:43.146Z,1010.14
2023-04-02T04:23:43.423Z,1010.11
2023-04-02T04:24:43.713Z,1010.18
2023-04-02T04:25:43.982Z,1010.21
2023-04-02T04:26:44.217Z,1010.21
2023-04-02T04:27:44.453Z,1010.25
2023-04-02T04:28:44.717Z,1010.32
2023-04-02T04:29:45.017Z,1010.25
2023-04-02T04:30:45.244Z,1010.34
2023-04-02T04:31:45.644Z,1010.32
2023-04-02T04:32:45.853Z,1010.37
2023-04-02T04:33:46.205Z,1010.38
2023-04-02T04:34:46.431Z,1010.36
2023-04-02T04:35:46.718Z,1010.42
2023-04-02T04:36:46.911Z,1010.43
2023-04-02T04:37:47.257Z,1010.46
2023-04-02T04:38:47.480Z,1010.48
2023-04-02T04:39:47.753Z,1010.51
2023-04-02T04:40:47.981Z,1010.55
2023-04-02T04:41:48.283Z,1010.57
2023-04-02T04:42:48.541Z,1010.57
2023-04-02T04:43:48.802Z,1010.58
2023-04-02T04:44:49.112Z,1010.60
2023-04-02T04:45:49.337Z,1010.61
2023-04-02T04:46:49.551Z,1010.61
2023-04-02T04:47:49.965Z,1010.68
2023-04-02T04:48:50.181Z,1010.69
2023-04-02T04:49:50.667Z,1010.67
2023-04-02T04:50:50.695Z,1010.72
2023-04-02T04:51:50.926Z,1010.69
2023-04-02T04:52:51.159Z,1010.69
2023-04-02T04:53:51.452Z,1010.75
2023-04-02T04:54:51.648Z,1010.70
2023-04-02T04:55:51.887Z,1010.70
2023-04-02T04:56:52.144Z,1010.73
2023-04-02T04:57:52.477Z,1010.77
2023-04-02T04:58:52.739Z,1010.80
2023-04-02T04:59:52.993Z,1010.83
2023-04-02T05:00:53.215Z,1010.90
2023-04-02T05:01:53.685Z,1010.95
2023-04-02T05:02:53.887Z,1010.90
2023-04-02T05:03:54.089Z,1010.92
2023-04-02T05:04:54.374Z,1010.96
2023-04-02T05:05:54.661Z,1010.94
2023-04-02T05:06:54.889Z,1010.96
2023-04-02T05:07:56.007Z,1010.97
2023-04-02T05:08:55.487Z,1010.99
2023-04-02T05:09:55.738Z,1011.03
2023-04-02T05:10:55.971Z,1011.04
2023-04-02T05:11:56.222Z,1011.06
2023-04-02T05:12:56.472Z,1011.08
2023-04-02T05:13:56.750Z,1011.11
2023-04-02T05:14:57.026Z,1011.14
2023-04-02T05:15:58.088Z,1011.17
2023-04-02T05:16:57.494Z,1011.19
2023-04-02T05:17:57.796Z,1011.21
2023-04-02T05:18:58.033Z,1011.25
2023-04-02T05:19:58.268Z,1011.21
2023-04-02T05:20:58.496Z,1011.32
2023-04-02T05:21:58.868Z,1011.25
2023-04-02T05:22:59.111Z,1011.28
2023-04-02T05:23:59.362Z,1011.31
2023-04-02T05:24:59.640Z,1011.30
2023-04-02T05:25:59.871Z,1011.31
2023-04-02T05:27:00.105Z,1011.36
2023-04-02T05:28:00.462Z,1011.38
2023-04-02T05:29:00.687Z,1011.40
2023-04-02T05:30:00.924Z,1011.41
2023-04-02T05:31:01.292Z,1011.43
2023-04-02T05:32:01.507Z,1011.40
2023-04-02T05:33:01.977Z,1011.51
2023-04-02T05:34:02.049Z,1011.48
2023-04-02T05:35:02.331Z,1011.51
2023-04-02T05:36:02.572Z,1011.51
2023-04-02T05:37:04.057Z,1011.53
2023-04-02T05:38:03.135Z,1011.55
2023-04-02T05:39:03.364Z,1011.56
2023-04-02T05:40:03.732Z,1011.56
2023-04-02T05:41:03.953Z,1011.58
2023-04-02T05:42:04.295Z,1011.62
2023-04-02T05:43:04.530Z,1011.59
2023-04-02T05:44:04.799Z,1011.58
2023-04-02T05:45:05.033Z,1011.61
2023-04-02T05:46:05.268Z,1011.69
2023-04-02T05:47:05.498Z,1011.65
2023-04-02T05:48:05.764Z,1011.67
2023-04-02T05:49:06.021Z,1011.67
2023-04-02T05:50:06.373Z,1011.69
2023-04-02T05:51:06.582Z,1011.60
2023-04-02T05:52:07.416Z,1011.66
2023-04-02T05:53:07.198Z,1011.69
2023-04-02T05:54:07.524Z,1011.77
2023-04-02T05:55:07.772Z,1011.78
2023-04-02T05:56:08.119Z,1011.81
2023-04-02T05:57:08.408Z,1011.83
2023-04-02T05:58:31.896Z,1011.83
2023-04-02T05:59:09.890Z,1011.86
2023-04-02T06:00:09.117Z,1011.88
2023-04-02T06:01:09.345Z,1011.86
2023-04-02T06:02:09.635Z,1011.91
2023-04-02T06:03:09.928Z,1011.88
2023-04-02T06:04:10.141Z,1011.89
2023-04-02T06:05:10.345Z,1011.91
2023-04-02T06:06:10.584Z,1011.98
2023-04-02T06:07:10.805Z,1011.99
2023-04-02T06:08:11.048Z,1012.02
2023-04-02T06:09:11.282Z,1012.03
2023-04-02T06:10:11.546Z,1012.02
2023-04-02T06:11:11.804Z,1012.01
2023-04-02T06:12:12.045Z,1012.04
2023-04-02T06:13:12.263Z,1012.04
2023-04-02T06:14:12.624Z,1012.05
2023-04-02T06:15:12.867Z,1012.02
2023-04-02T06:16:13.106Z,1012.07
2023-04-02T06:17:13.312Z,1012.13
2023-04-02T06:18:13.551Z,1012.09
2023-04-02T06:19:13.791Z,1012.10
2023-04-02T06:20:14.031Z,1012.16
2023-04-02T06:21:14.262Z,1012.24
2023-04-02T06:22:14.501Z,1012.23
2023-04-02T06:23:14.723Z,1012.25
2023-04-02T06:24:14.948Z,1012.36
2023-04-02T06:25:15.297Z,1012.29
2023-04-02T06:26:15.527Z,1012.27
2023-04-02T06:27:15.851Z,1012.32
2023-04-02T06:28:16.109Z,1012.34
2023-04-02T06:29:16.330Z,1012.34
2023-04-02T06:30:16.577Z,1012.37
2023-04-02T06:31:16.822Z,1012.39
2023-04-02T06:32:17.042Z,1012.43
2023-04-02T06:33:17.375Z,1012.40
2023-04-02T06:34:17.598Z,1012.43
2023-04-02T06:35:17.869Z,1012.46
2023-04-02T06:36:18.112Z,1012.47
2023-04-02T06:37:18.406Z,1012.49
2023-04-02T06:38:18.640Z,1012.50
2023-04-02T06:39:18.860Z,1012.52
2023-04-02T06:40:19.093Z,1012.48
2023-04-02T06:41:19.306Z,1012.55
2023-04-02T06:42:19.530Z,1012.53
2023-04-02T06:43:19.751Z,1012.58
2023-04-02T06:44:19.973Z,1012.63
2023-04-02T06:45:20.318Z,1012.65
2023-04-02T06:46:20.574Z,1012.68
2023-04-02T06:47:20.781Z,1012.66
2023-04-02T06:48:20.991Z,1012.65
2023-04-02T06:49:21.232Z,1012.67
2023-04-02T06:50:21.493Z,1012.77
2023-04-02T06:51:21.731Z,1012.66
2023-04-02T06:52:21.919Z,1012.72
2023-04-02T06:53:22.175Z,1012.72
2023-04-02T06:54:22.373Z,1012.74
2023-04-02T06:55:22.783Z,1012.81
2023-04-02T06:56:22.960Z,1012.77
2023-04-02T06:57:23.318Z,1012.75
2023-04-02T06:58:23.503Z,1012.77
2023-04-02T06:59:23.725Z,1012.78
2023-04-02T07:00:23.955Z,1012.80
2023-04-02T07:01:24.251Z,1012.85
2023-04-02T07:02:24.424Z,1012.75
2023-04-02T07:03:24.637Z,1012.81
2023-04-02T07:04:24.881Z,1012.82
2023-04-02T07:05:25.095Z,1012.82
2023-04-02T07:06:25.305Z,1012.80
2023-04-02T07:07:25.510Z,1012.80
2023-04-02T07:08:25.723Z,1012.83
2023-04-02T07:09:25.929Z,1012.81
2023-04-02T07:10:26.179Z,1012.80
2023-04-02T07:11:26.376Z,1012.82
2023-04-02T07:12:26.589Z,1012.83
2023-04-02T07:13:26.784Z,1012.87
2023-04-02T07:14:26.987Z,1012.82
2023-04-02T07:15:28.187Z,1012.84
2023-04-02T07:16:27.539Z,1012.81
2023-04-02T07:17:27.692Z,1012.90
2023-04-02T07:18:27.854Z,1012.88
2023-04-02T07:19:28.043Z,1012.86
2023-04-02T07:20:28.237Z,1012.92
2023-04-02T07:21:28.484Z,1012.92
2023-04-02T07:22:28.629Z,1012.92
2023-04-02T07:23:28.870Z,1012.93
2023-04-02T07:24:29.054Z,1013.02
2023-04-02T07:25:29.377Z,1012.88
2023-04-02T07:26:29.569Z,1012.88
2023-04-02T07:27:29.879Z,1012.93
2023-04-02T07:28:30.052Z,1012.98
2023-04-02T07:29:30.385Z,1012.95
2023-04-02T07:30:30.599Z,1013.09
2023-04-02T07:31:30.806Z,1013.03
2023-04-02T07:32:31.052Z,1013.04
2023-04-02T07:33:31.333Z,1013.12
2023-04-02T07:34:31.481Z,1013.02
2023-04-02T07:35:31.743Z,1012.99
2023-04-02T07:36:31.917Z,1013.01
2023-04-02T07:37:32.105Z,1013.03
2023-04-02T07:38:32.306Z,1013.06
2023-04-02T07:39:33.800Z,1013.08
2023-04-02T07:40:32.801Z,1013.11
2023-04-02T07:41:32.988Z,1013.12
2023-04-02T07:42:33.187Z,1013.16
2023-04-02T07:43:33.395Z,1013.19
2023-04-02T07:44:33.618Z,1013.17
2023-04-02T07:45:34.252Z,1013.33
2023-04-02T07:46:34.075Z,1013.30
2023-04-02T07:47:34.265Z,1013.30
2023-04-02T07:48:34.425Z,1013.21
2023-04-02T07:49:34.614Z,1013.20
2023-04-02T07:50:34.821Z,1013.20
2023-04-02T07:51:35.004Z,1013.25
2023-04-02T07:52:35.208Z,1013.31
2023-04-02T07:53:35.410Z,1013.31
2023-04-02T07:54:35.586Z,1013.33
2023-04-02T07:55:36.006Z,1013.29
2023-04-02T07:56:35.936Z,1013.32
2023-04-02T07:57:36.275Z,1013.34
2023-04-02T07:58:36.428Z,1013.37
2023-04-02T07:59:36.607Z,1013.39
2023-04-02T08:00:36.820Z,1013.48
2023-04-02T08:01:37.087Z,1013.56
2023-04-02T08:02:37.336Z,1013.59
2023-04-02T08:03:37.477Z,1013.54
2023-04-02T08:04:37.640Z,1013.57
2023-04-02T08:05:38.277Z,1013.58
2023-04-02T08:06:38.208Z,1013.57
2023-04-02T08:07:38.416Z,1013.64
2023-04-02T08:08:38.636Z,1013.65
2023-04-02T08:09:38.813Z,1013.68
2023-04-02T08:10:39.015Z,1013.73
2023-04-02T08:11:39.236Z,1013.75
2023-04-02T08:12:39.445Z,1013.74
2023-04-02T08:13:39.656Z,1013.73
2023-04-02T08:14:39.844Z,1013.75
2023-04-02T08:15:40.180Z,1013.83
2023-04-02T08:16:40.405Z,1013.75
2023-04-02T08:17:40.632Z,1013.81
2023-04-02T08:18:40.836Z,1013.75
2023-04-02T08:19:52.020Z,1013.82
2023-04-02T08:20:42.356Z,1013.84
2023-04-02T08:21:41.551Z,1013.81
2023-04-02T08:22:41.759Z,1013.81
2023-04-02T08:23:42.104Z,1013.84
2023-04-02T08:24:42.273Z,1013.90
2023-04-02T08:25:42.612Z,1013.84
2023-04-02T08:26:44.987Z,1013.85
2023-04-02T08:27:43.097Z,1013.86
2023-04-02T08:28:43.306Z,1013.85
2023-04-02T08:29:43.506Z,1013.93
2023-04-02T08:30:43.799Z,1013.99
2023-04-02T08:31:43.991Z,1013.99
2023-04-02T08:32:44.249Z,1014.03
2023-04-02T08:33:44.517Z,1013.99
2023-04-02T08:34:44.733Z,1014.05
2023-04-02T08:35:45.088Z,1014.01
2023-04-02T08:36:45.226Z,1014.01
2023-04-02T08:37:45.404Z,1014.04
2023-04-02T08:38:45.592Z,1014.03
2023-04-02T08:39:45.929Z,1014.05
2023-04-02T08:40:46.110Z,1014.03
2023-04-02T08:41:46.328Z,1014.10
2023-04-02T08:42:46.572Z,1014.10
2023-04-02T08:43:46.801Z,1014.16
2023-04-02T08:44:47.054Z,1014.14
2023-04-02T08:45:47.268Z,1014.13
2023-04-02T08:46:47.457Z,1014.09
2023-04-02T08:47:47.675Z,1014.18
2023-04-02T08:48:47.898Z,1014.16
2023-04-02T08:49:48.107Z,1014.18
2023-04-02T08:50:48.307Z,1014.25
2023-04-02T08:51:48.521Z,1014.24
2023-04-02T08:52:48.724Z,1014.23
2023-04-02T08:53:48.932Z,1014.32
2023-04-02T08:54:49.143Z,1014.32
2023-04-02T08:55:49.361Z,1014.23
2023-04-02T08:56:49.608Z,1014.32
2023-04-02T08:57:49.823Z,1014.34
2023-04-02T08:58:50.028Z,1014.36
2023-04-02T08:59:50.237Z,1014.38
2023-04-02T09:00:50.453Z,1014.43
2023-04-02T09:01:50.690Z,1014.50
2023-04-02T09:02:50.942Z,1014.44
2023-04-02T09:03:51.151Z,1014.47
2023-04-02T09:04:51.428Z,1014.49
2023-04-02T09:05:51.623Z,1014.55
2023-04-02T09:06:51.844Z,1014.50
2023-04-02T09:07:52.034Z,1014.56
2023-04-02T09:08:52.210Z,1014.61
2023-04-02T09:09:52.533Z,1014.57
2023-04-02T09:10:52.753Z,1014.63
2023-04-02T09:11:52.968Z,1014.60
2023-04-02T09:12:53.155Z,1014.62
2023-04-02T09:13:53.397Z,1014.60
2023-04-02T09:14:53.592Z,1014.69
2023-04-02T09:15:53.905Z,1014.65
2023-04-02T09:16:54.110Z,1014.61
2023-04-02T09:17:55.030Z,1014.67
2023-04-02T09:18:54.543Z,1014.66
2023-04-02T09:19:54.748Z,1014.66
2023-04-02T09:20:54.944Z,1014.63
2023-04-02T09:21:55.146Z,1014.63
2023-04-02T09:22:55.365Z,1014.67
2023-04-02T09:23:55.540Z,1014.67
2023-04-02T09:24:55.760Z,1014.66
2023-04-02T09:26:04.106Z,1014.61
2023-04-02T09:26:57.242Z,1014.70
2023-04-02T09:27:56.573Z,1014.71
2023-04-02T09:28:56.798Z,1014.69
2023-04-02T09:29:57.020Z,1014.74
2023-04-02T09:30:57.226Z,1014.74
2023-04-02T09:31:57.487Z,1014.79
2023-04-02T09:32:57.749Z,1014.75
2023-04-02T09:33:57.935Z,1014.76
2023-04-02T09:34:58.135Z,1014.81
2023-04-02T09:35:58.455Z,1014.81
2023-04-02T09:36:58.589Z,1014.76
2023-04-02T09:37:58.788Z,1015.03
2023-04-02T09:38:59.004Z,1014.79
2023-04-02T09:39:59.234Z,1014.80
2023-04-02T09:40:59.492Z,1014.93
2023-04-02T09:42:05.544Z,1015.01
2023-04-02T09:43:00.840Z,1014.91
2023-04-02T09:44:00.013Z,1014.93
2023-04-02T09:45:00.162Z,1014.93
2023-04-02T09:46:00.434Z,1014.92
2023-04-02T09:47:00.667Z,1015.01
2023-04-02T09:48:01.836Z,1015.00
2023-04-02T09:49:01.188Z,1014.99
2023-04-02T09:50:01.133Z,1014.98
2023-04-02T09:51:01.282Z,1015.02
2023-04-02T09:52:01.402Z,1014.99
2023-04-02T09:53:01.505Z,1015.04
2023-04-02T09:54:01.724Z,1014.97
2023-04-02T09:55:01.818Z,1015.06
2023-04-02T09:56:01.937Z,1015.06
2023-04-02T09:57:02.043Z,1015.04
2023-04-02T09:58:02.238Z,1014.98
2023-04-02T09:59:02.299Z,1015.03
2023-04-02T10:00:02.386Z,1015.08
2023-04-02T10:01:02.509Z,1015.00
2023-04-02T10:02:02.594Z,1015.03
2023-04-02T10:03:02.681Z,1015.06
2023-04-02T10:04:02.806Z,1015.09
2023-04-02T10:05:02.887Z,1015.15
2023-04-02T10:06:03.008Z,1015.09
2023-04-02T10:07:03.091Z,1015.08
2023-04-02T10:08:03.145Z,1015.13
2023-04-02T10:09:03.205Z,1015.15
2023-04-02T10:10:03.295Z,1015.22
2023-04-02T10:11:03.378Z,1015.17
2023-04-02T10:12:03.426Z,1015.19
2023-04-02T10:13:03.468Z,1015.16
2023-04-02T10:14:03.553Z,1015.19
2023-04-02T10:15:03.617Z,1015.14
2023-04-02T10:16:03.761Z,1015.18
2023-04-02T10:17:03.819Z,1015.14
2023-04-02T10:18:03.955Z,1015.18
2023-04-02T10:19:03.967Z,1015.19
2023-04-02T10:20:04.015Z,1015.22
2023-04-02T10:21:04.092Z,1015.20
2023-04-02T10:22:11.193Z,1015.24
2023-04-02T10:23:06.388Z,1015.22
2023-04-02T10:24:04.339Z,1015.15
2023-04-02T10:25:04.404Z,1015.16
2023-04-02T10:26:04.518Z,1015.18
2023-04-02T10:27:04.605Z,1015.10
2023-04-02T10:28:04.662Z,1015.23
2023-04-02T10:29:06.886Z,1015.14
2023-04-02T10:30:04.861Z,1015.18
2023-04-02T10:31:04.950Z,1015.21
2023-04-02T10:32:04.985Z,1015.20
2023-04-02T10:33:05.056Z,1015.12
2023-04-02T10:34:05.094Z,1015.25
2023-04-02T10:35:05.155Z,1015.24
2023-04-02T10:36:05.441Z,1015.25
2023-04-02T10:37:05.551Z,1015.12
2023-04-02T10:38:05.499Z,1015.20
2023-04-02T10:39:05.557Z,1015.26
2023-04-02T10:40:05.607Z,1014.97
2023-04-02T10:41:05.697Z,1015.27
2023-04-02T10:42:05.753Z,1014.99
2023-04-02T10:43:05.791Z,1015.08
2023-04-02T10:44:16.647Z,1015.03
2023-04-02T10:45:06.914Z,1015.13
2023-04-02T10:46:06.022Z,1015.23
2023-04-02T10:47:06.114Z,1015.34
2023-04-02T10:48:06.196Z,1015.35
2023-04-02T10:49:06.429Z,1015.53
2023-04-02T10:50:06.503Z,1015.43
2023-04-02T10:51:06.715Z,1015.21
2023-04-02T10:52:06.793Z,1015.17
2023-04-02T10:53:06.886Z,1015.21
2023-04-02T10:54:06.973Z,1015.20
2023-04-02T10:55:07.167Z,1015.24
2023-04-02T10:56:07.279Z,1015.34
2023-04-02T10:57:07.431Z,1015.36
2023-04-02T10:58:07.499Z,1015.51
2023-04-02T10:59:07.713Z,1015.49
2023-04-02T11:00:07.787Z,1015.49
2023-04-02T11:01:07.972Z,1015.31
2023-04-02T11:02:08.052Z,1015.53
2023-04-02T11:03:08.343Z,1015.59
2023-04-02T11:04:08.311Z,1015.36
2023-04-02T11:05:08.380Z,1015.57
2023-04-02T11:06:09.709Z,1015.56
2023-04-02T11:07:14.408Z,1015.47
2023-04-02T11:08:09.683Z,1015.43
2023-04-02T11:09:08.775Z,1015.46
2023-04-02T11:10:08.838Z,1015.41
2023-04-02T11:11:08.948Z,1015.51
2023-04-02T11:12:09.020Z,1015.45
2023-04-02T11:13:09.096Z,1015.46
2023-04-02T11:14:09.283Z,1015.51
2023-04-02T11:15:09.493Z,1015.70
2023-04-02T11:16:09.628Z,1015.56
2023-04-02T11:17:09.679Z,1015.76
2023-04-02T11:18:09.747Z,1015.53
2023-04-02T11:19:09.962Z,1015.57
2023-04-02T11:20:10.066Z,1015.56
2023-04-02T11:21:10.288Z,1015.60
2023-04-02T11:22:10.397Z,1015.62
2023-04-02T11:23:10.498Z,1015.60
2023-04-02T11:24:10.588Z,1015.60
2023-04-02T11:25:10.713Z,1015.72
2023-04-02T11:26:10.849Z,1015.74
2023-04-02T11:27:10.979Z,1015.81
2023-04-02T11:28:11.106Z,1015.79
2023-04-02T11:29:11.371Z,1015.77
2023-04-02T11:30:11.521Z,1015.85
2023-04-02T11:31:11.702Z,1015.87
2023-04-02T11:32:11.818Z,1015.95
2023-04-02T11:33:11.987Z,1015.96
2023-04-02T11:34:12.115Z,1015.95
2023-04-02T11:35:12.367Z,1016.00
2023-04-02T11:36:12.577Z,1016.04
2023-04-02T11:37:12.691Z,1016.01
2023-04-02T11:38:12.841Z,1016.03
2023-04-02T11:39:17.462Z,1016.02
2023-04-02T11:40:13.252Z,1015.96
2023-04-02T11:41:13.373Z,1016.02
2023-04-02T11:42:13.517Z,1016.12
2023-04-02T11:43:13.804Z,1016.18
2023-04-02T11:44:13.976Z,1016.16
2023-04-02T11:45:14.134Z,1016.08
2023-04-02T11:46:14.327Z,1016.16
2023-04-02T11:47:14.479Z,1016.13
2023-04-02T11:48:14.677Z,1016.17
2023-04-02T11:49:14.828Z,1016.15
2023-04-02T11:50:15.068Z,1016.10
2023-04-02T11:51:15.293Z,1016.12
2023-04-02T11:52:15.430Z,1016.20
2023-04-02T11:53:15.673Z,1016.23
2023-04-02T11:54:15.802Z,1016.19
2023-04-02T11:55:15.939Z,1016.00
2023-04-02T11:56:16.068Z,1016.25
2023-04-02T11:57:16.250Z,1016.28
2023-04-02T11:58:16.318Z,1016.24
2023-04-02T11:59:16.478Z,1016.15
2023-04-02T12:00:18.078Z,1016.10
2023-04-02T12:01:16.750Z,1016.22
2023-04-02T12:02:16.914Z,1016.14
2023-04-02T12:03:16.995Z,1016.20
2023-04-02T12:04:17.051Z,1016.22
2023-04-02T12:05:17.180Z,1016.21
2023-04-02T12:06:17.294Z,1016.26
2023-04-02T12:07:17.393Z,1016.21
2023-04-02T12:08:17.476Z,1016.17